sensor_id;sensor_type;location;lat;lon;timestamp;P1;durP1;ratioP1;P2;durP2;ratioP2
40629;SDS011;26329;40.388;-3.710;2023-07-20T00:08:02;27.92;;;6.05;;
40629;SDS011;26329;40.388;-3.710;2023-07-20T00:18:06;27.73;;;10.25;;
40629;SDS011;26329;40.388;-3.710;2023-07-20T00:28:06;33.42;;;11.52;;
40629;SDS011;26329;40.388;-3.710;2023-07-20T00:38:07;30.15;;;5.97;;
40629;SDS011;26329;40.388;-3.710;2023-07-20T00:48:08;47.25;;;10.68;;
40629;SDS011;26329;40.388;-3.710;2023-07-20T00:58:09;34.78;;;8.23;;
40629;SDS011;26329;40.388;-3.710;2023-07-20T01:08:12;24.08;;;5.63;;
40629;SDS011;26329;40.388;-3.710;2023-07-20T01:18:17;27.45;;;5.30;;
40629;SDS011;26329;40.388;-3.710;2023-07-20T01:38:37;27.50;;;4.47;;
40629;SDS011;26329;40.388;-3.710;2023-07-20T01:48:38;25.85;;;8.02;;
40629;SDS011;26329;40.388;-3.710;2023-07-20T01:58:39;24.95;;;3.72;;
40629;SDS011;26329;40.388;-3.710;2023-07-20T02:08:40;22.65;;;4.05;;
40629;SDS011;26329;40.388;-3.710;2023-07-20T02:18:41;28.00;;;9.10;;
40629;SDS011;26329;40.388;-3.710;2023-07-20T02:28:41;14.93;;;4.05;;
40629;SDS011;26329;40.388;-3.710;2023-07-20T02:38:43;27.10;;;8.95;;
40629;SDS011;26329;40.388;-3.710;2023-07-20T02:48:44;11.57;;;3.45;;
40629;SDS011;26329;40.388;-3.710;2023-07-20T02:58:45;18.48;;;4.18;;
40629;SDS011;26329;40.388;-3.710;2023-07-20T03:08:48;15.23;;;3.55;;
40629;SDS011;26329;40.388;-3.710;2023-07-20T03:18:52;20.80;;;3.53;;
40629;SDS011;26329;40.388;-3.710;2023-07-20T03:28:52;12.80;;;3.20;;
40629;SDS011;26329;40.388;-3.710;2023-07-20T03:38:53;10.38;;;3.20;;
40629;SDS011;26329;40.388;-3.710;2023-07-20T03:48:54;14.35;;;3.55;;
40629;SDS011;26329;40.388;-3.710;2023-07-20T03:58:55;16.63;;;3.28;;
40629;SDS011;26329;40.388;-3.710;2023-07-20T04:08:55;14.95;;;3.25;;
40629;SDS011;26329;40.388;-3.710;2023-07-20T04:18:56;14.82;;;3.45;;
40629;SDS011;26329;40.388;-3.710;2023-07-20T04:28:57;18.13;;;3.70;;
40629;SDS011;26329;40.388;-3.710;2023-07-20T04:38:59;12.13;;;3.40;;
40629;SDS011;26329;40.388;-3.710;2023-07-20T04:49:00;11.57;;;2.75;;
40629;SDS011;26329;40.388;-3.710;2023-07-20T04:59:01;10.48;;;3.33;;
40629;SDS011;26329;40.388;-3.710;2023-07-20T05:09:02;10.70;;;3.55;;
40629;SDS011;26329;40.388;-3.710;2023-07-20T05:19:03;10.68;;;3.78;;
40629;SDS011;26329;40.388;-3.710;2023-07-20T05:29:03;11.68;;;4.30;;
40629;SDS011;26329;40.388;-3.710;2023-07-20T05:39:04;11.43;;;4.45;;
40629;SDS011;26329;40.388;-3.710;2023-07-20T05:49:05;12.18;;;5.00;;
40629;SDS011;26329;40.388;-3.710;2023-07-20T05:59:06;13.50;;;4.72;;
40629;SDS011;26329;40.388;-3.710;2023-07-20T06:09:07;19.13;;;4.80;;
40629;SDS011;26329;40.388;-3.710;2023-07-20T06:19:11;18.67;;;5.47;;
40629;SDS011;26329;40.388;-3.710;2023-07-20T06:29:12;29.15;;;6.72;;
40629;SDS011;26329;40.388;-3.710;2023-07-20T06:39:13;28.60;;;6.07;;
40629;SDS011;26329;40.388;-3.710;2023-07-20T06:49:24;16.13;;;5.07;;
40629;SDS011;26329;40.388;-3.710;2023-07-20T06:59:26;30.42;;;6.35;;
40629;SDS011;26329;40.388;-3.710;2023-07-20T07:09:26;20.77;;;5.80;;
40629;SDS011;26329;40.388;-3.710;2023-07-20T07:19:27;23.15;;;5.15;;
40629;SDS011;26329;40.388;-3.710;2023-07-20T07:29:28;13.10;;;4.57;;
40629;SDS011;26329;40.388;-3.710;2023-07-20T07:39:29;21.70;;;5.53;;
40629;SDS011;26329;40.388;-3.710;2023-07-20T07:49:30;11.75;;;4.85;;
40629;SDS011;26329;40.388;-3.710;2023-07-20T07:59:31;18.77;;;4.55;;
40629;SDS011;26329;40.388;-3.710;2023-07-20T08:09:36;18.13;;;4.10;;
40629;SDS011;26329;40.388;-3.710;2023-07-20T08:19:37;13.30;;;3.70;;
40629;SDS011;26329;40.388;-3.710;2023-07-20T08:29:41;9.15;;;3.47;;
40629;SDS011;26329;40.388;-3.710;2023-07-20T08:39:42;8.52;;;2.75;;
40629;SDS011;26329;40.388;-3.710;2023-07-20T08:49:43;6.47;;;2.83;;
40629;SDS011;26329;40.388;-3.710;2023-07-20T08:59:44;9.88;;;2.95;;
40629;SDS011;26329;40.388;-3.710;2023-07-20T09:09:45;8.93;;;2.47;;
40629;SDS011;26329;40.388;-3.710;2023-07-20T09:19:46;8.23;;;2.50;;
40629;SDS011;26329;40.388;-3.710;2023-07-20T09:29:51;10.55;;;3.38;;
40629;SDS011;26329;40.388;-3.710;2023-07-20T09:39:52;9.35;;;2.40;;
40629;SDS011;26329;40.388;-3.710;2023-07-20T09:49:59;11.35;;;2.40;;
40629;SDS011;26329;40.388;-3.710;2023-07-20T10:00:00;12.90;;;2.63;;
40629;SDS011;26329;40.388;-3.710;2023-07-20T10:10:04;13.43;;;6.40;;
40629;SDS011;26329;40.388;-3.710;2023-07-20T10:20:07;12.70;;;3.85;;
40629;SDS011;26329;40.388;-3.710;2023-07-20T10:30:10;11.48;;;2.10;;
40629;SDS011;26329;40.388;-3.710;2023-07-20T10:40:24;7.25;;;1.85;;
40629;SDS011;26329;40.388;-3.710;2023-07-20T10:50:37;8.02;;;1.60;;
40629;SDS011;26329;40.388;-3.710;2023-07-20T11:00:54;12.73;;;1.65;;
40629;SDS011;26329;40.388;-3.710;2023-07-20T11:11:21;10.00;;;1.92;;
40629;SDS011;26329;40.388;-3.710;2023-07-20T11:21:30;6.15;;;1.55;;
40629;SDS011;26329;40.388;-3.710;2023-07-20T11:31:37;6.05;;;1.55;;
40629;SDS011;26329;40.388;-3.710;2023-07-20T11:41:43;6.43;;;2.22;;
40629;SDS011;26329;40.388;-3.710;2023-07-20T11:51:46;6.25;;;1.73;;
40629;SDS011;26329;40.388;-3.710;2023-07-20T12:01:47;7.28;;;1.75;;
40629;SDS011;26329;40.388;-3.710;2023-07-20T12:11:48;11.10;;;1.67;;
40629;SDS011;26329;40.388;-3.710;2023-07-20T12:21:50;9.25;;;1.70;;
40629;SDS011;26329;40.388;-3.710;2023-07-20T12:31:57;7.35;;;1.42;;
40629;SDS011;26329;40.388;-3.710;2023-07-20T12:41:58;8.23;;;1.40;;
40629;SDS011;26329;40.388;-3.710;2023-07-20T12:51:58;5.20;;;0.85;;
40629;SDS011;26329;40.388;-3.710;2023-07-20T13:01:59;3.88;;;0.98;;
40629;SDS011;26329;40.388;-3.710;2023-07-20T13:12:00;8.32;;;1.00;;
40629;SDS011;26329;40.388;-3.710;2023-07-20T13:22:01;5.85;;;0.85;;
40629;SDS011;26329;40.388;-3.710;2023-07-20T13:32:02;6.60;;;1.08;;
40629;SDS011;26329;40.388;-3.710;2023-07-20T13:42:05;7.00;;;1.23;;
40629;SDS011;26329;40.388;-3.710;2023-07-20T13:52:06;6.80;;;1.30;;
40629;SDS011;26329;40.388;-3.710;2023-07-20T14:02:07;4.05;;;1.33;;
40629;SDS011;26329;40.388;-3.710;2023-07-20T14:12:08;4.10;;;1.23;;
40629;SDS011;26329;40.388;-3.710;2023-07-20T14:22:12;5.85;;;1.40;;
40629;SDS011;26329;40.388;-3.710;2023-07-20T14:32:12;5.75;;;1.77;;
40629;SDS011;26329;40.388;-3.710;2023-07-20T14:42:13;5.38;;;2.40;;
40629;SDS011;26329;40.388;-3.710;2023-07-20T14:52:14;4.97;;;2.35;;
40629;SDS011;26329;40.388;-3.710;2023-07-20T15:02:15;6.15;;;2.90;;
40629;SDS011;26329;40.388;-3.710;2023-07-20T15:12:16;19.73;;;3.05;;
40629;SDS011;26329;40.388;-3.710;2023-07-20T15:22:17;5.78;;;2.40;;
40629;SDS011;26329;40.388;-3.710;2023-07-20T15:32:17;4.75;;;2.92;;
40629;SDS011;26329;40.388;-3.710;2023-07-20T15:42:19;2.10;;;1.90;;
40629;SDS011;26329;40.388;-3.710;2023-07-20T15:52:19;3.92;;;1.77;;
40629;SDS011;26329;40.388;-3.710;2023-07-20T16:02:20;2.92;;;2.08;;
40629;SDS011;26329;40.388;-3.710;2023-07-20T16:12:21;4.97;;;2.30;;
40629;SDS011;26329;40.388;-3.710;2023-07-20T16:22:25;3.92;;;2.70;;
40629;SDS011;26329;40.388;-3.710;2023-07-20T16:32:26;4.18;;;2.00;;
40629;SDS011;26329;40.388;-3.710;2023-07-20T16:42:27;4.00;;;2.30;;
40629;SDS011;26329;40.388;-3.710;2023-07-20T16:52:28;3.13;;;1.70;;
40629;SDS011;26329;40.388;-3.710;2023-07-20T17:02:29;4.03;;;1.35;;
40629;SDS011;26329;40.388;-3.710;2023-07-20T17:12:29;1.90;;;1.70;;
40629;SDS011;26329;40.388;-3.710;2023-07-20T17:22:30;2.13;;;1.60;;
40629;SDS011;26329;40.388;-3.710;2023-07-20T17:32:31;2.08;;;1.88;;
40629;SDS011;26329;40.388;-3.710;2023-07-20T17:42:31;3.85;;;2.00;;
40629;SDS011;26329;40.388;-3.710;2023-07-20T17:52:32;4.50;;;2.00;;
40629;SDS011;26329;40.388;-3.710;2023-07-20T18:02:33;2.28;;;1.98;;
40629;SDS011;26329;40.388;-3.710;2023-07-20T18:12:34;5.78;;;2.25;;
40629;SDS011;26329;40.388;-3.710;2023-07-20T18:22:35;3.05;;;2.67;;
40629;SDS011;26329;40.388;-3.710;2023-07-20T18:32:36;7.82;;;4.03;;
40629;SDS011;26329;40.388;-3.710;2023-07-20T18:42:37;4.95;;;3.13;;
40629;SDS011;26329;40.388;-3.710;2023-07-20T18:52:38;6.85;;;3.10;;
40629;SDS011;26329;40.388;-3.710;2023-07-20T19:02:39;3.90;;;3.60;;
40629;SDS011;26329;40.388;-3.710;2023-07-20T19:12:40;7.30;;;3.80;;
40629;SDS011;26329;40.388;-3.710;2023-07-20T19:22:42;6.03;;;3.90;;
40629;SDS011;26329;40.388;-3.710;2023-07-20T19:32:43;5.53;;;3.78;;
40629;SDS011;26329;40.388;-3.710;2023-07-20T19:42:44;8.48;;;3.85;;
40629;SDS011;26329;40.388;-3.710;2023-07-20T19:52:47;8.02;;;4.32;;
40629;SDS011;26329;40.388;-3.710;2023-07-20T20:02:49;8.13;;;4.22;;
40629;SDS011;26329;40.388;-3.710;2023-07-20T20:12:49;7.20;;;4.22;;
40629;SDS011;26329;40.388;-3.710;2023-07-20T20:22:50;11.07;;;3.90;;
40629;SDS011;26329;40.388;-3.710;2023-07-20T20:32:51;5.80;;;3.97;;
40629;SDS011;26329;40.388;-3.710;2023-07-20T20:42:52;3.95;;;3.65;;
40629;SDS011;26329;40.388;-3.710;2023-07-20T20:52:53;5.20;;;4.43;;
40629;SDS011;26329;40.388;-3.710;2023-07-20T21:02:53;13.75;;;4.68;;
40629;SDS011;26329;40.388;-3.710;2023-07-20T21:12:55;4.00;;;3.60;;
40629;SDS011;26329;40.388;-3.710;2023-07-20T21:22:56;7.15;;;4.22;;
40629;SDS011;26329;40.388;-3.710;2023-07-20T21:32:56;5.25;;;3.67;;
40629;SDS011;26329;40.388;-3.710;2023-07-20T21:42:57;3.10;;;2.83;;
40629;SDS011;26329;40.388;-3.710;2023-07-20T21:52:58;5.88;;;3.40;;
40629;SDS011;26329;40.388;-3.710;2023-07-20T22:02:59;8.30;;;3.05;;
40629;SDS011;26329;40.388;-3.710;2023-07-20T22:13:00;4.57;;;2.92;;
40629;SDS011;26329;40.388;-3.710;2023-07-20T22:23:00;6.40;;;2.75;;
40629;SDS011;26329;40.388;-3.710;2023-07-20T22:33:01;4.25;;;2.55;;
40629;SDS011;26329;40.388;-3.710;2023-07-20T22:43:03;3.85;;;3.30;;
40629;SDS011;26329;40.388;-3.710;2023-07-20T22:53:04;3.03;;;2.83;;
40629;SDS011;26329;40.388;-3.710;2023-07-20T23:03:05;3.83;;;2.88;;
40629;SDS011;26329;40.388;-3.710;2023-07-20T23:13:05;4.20;;;2.90;;
40629;SDS011;26329;40.388;-3.710;2023-07-20T23:23:06;5.70;;;2.88;;
40629;SDS011;26329;40.388;-3.710;2023-07-20T23:33:07;4.85;;;2.85;;
40629;SDS011;26329;40.388;-3.710;2023-07-20T23:43:09;4.95;;;3.40;;
40629;SDS011;26329;40.388;-3.710;2023-07-20T23:53:10;6.47;;;3.80;;
